Terminal Aerodrome Forecast
Issued by NWS Binghamton, NY

Home | Current Version | Previous Version | Text Only | Print | Product List | Glossary On
Versions: 1 2 3 4 5 6 7 8 9 10 11 12 13 14 15 16 17 18 19 20 21 22 23
000
FTUS41 KBGM 301300 AAA
TAFSYR
TAF AMD
KSYR 301334Z 3014/3112 28008KT P6SM SCT025 OVC035
      TEMPO 3014/3015 OVC025
     FM301800 31008KT P6SM OVC035
     FM310000 VRB03KT P6SM BKN040=

USA.gov is the U.S. government's official web portal to all federal, state and local government web resources and services.